Normangee, Texas
Current Conditions -  °F | °C
As of 11:35 AM on Friday 21 Nov 2014 (Local Time) from KCFD Reporting Station
Overcast Overcast  
Wind Chill: 66°   Ceiling: 500
Heat Index: 66°   Visibility: 10mi
Dew Point: 64°   Wind: 10mph
Humidity: 94%   Direction: 140°SE
Pressure: 30.15"   Gusts: NA
Location:  31.03°N, 96.11°W
Report Text: KCFD 211735Z AUTO 14009KT 10SM OVC005 19/18 A3015 RMK AO2 T01880179
Loading
Personal Weather Stations






























Interactive Weather Map New forecast layout! Learn more

10-Day Weather Forecast

Advertisements
Track Severe Weather on mobile